Ketchikan, AK

1:38 PM AKST on December 27, 2014 (GMT -0900)
Ketchikan International | Change Station
CLOSE
Current Station
Airport
Location: Ketchikan,
Elevation: 95 ft
Nearby Weather Stations

Elev 95 ft 55.36 °N, 131.71 °W | Updated 45 minutes ago

Mostly Cloudy
Mostly Cloudy
42 °F
Feels Like 35 °F
N
14
Wind Variable Wind from NW

Today
High -- | Low -- °F
--% Chance of Precip.
Yesterday
High -- | Low -- °F
Precip. -- in
8:14 AM 3:22 PM
Waxing Crescent, 41% visible
Pressure 30.16 in
Visibility 10.0 miles
Clouds Mostly Cloudy 3200 ft
Windchill 35 °F
Dew Point 34 °F
Humidity 73%
Rainfall 0.01 in
Snow Depth Not available.
UV 0 out of 12
Pollen Not available.
Air Quality Not available.
Flu Activity Not available.
METAR PAKT 272153Z 32012KT 10SM BKN032 06/01 A3016 RMK AO2 SLP213 T00560011

More Conditions Fewer Conditions

Pressure 30.16 in
Visibility 10.0 miles
Clouds Mostly Cloudy 3200 ft
Windchill 35 °F
Dew Point 34 °F
Humidity 73%
Rainfall 0.01 in
Snow Depth Not available.
UV 0 out of 12
Pollen Not available.
Air Quality Not available.
Flu Activity Not available.
METAR PAKT 272153Z 32012KT 10SM BKN032 06/01 A3016 RMK AO2 SLP213 T00560011

More Conditions Fewer Conditions

10-Day Weather Forecast

Almanac

Astronomy

Dec. 27, 2014 Rise Set
Actual Time
Civil Twilight
Nautical Twilight
Astronomical Twilight
Moon
Length of Visible Light
Length of Day
Tomorrow will be .
, % of the Moon is Illuminated

Today's Extremes

State Highs State Lows

Community

WunderPhotos

Upload Photos

1,781,095 photos uploaded!

WunderBlogs® & News

Nearby

Air Quality

  Air Quality AQ Index Pollutant
Not available.

Snow Depth

Station Depth Elevation

Earthquake Activity

City Distance Mag. Time & Date
Minimum magnitude displayed is 2.5.

Coastal Water Temperatures

Place Temperature

Nearby Weather Stations